Main page
METAR-TAF:

METAR-TAF

Airports :

Kephalonia International Airport

Kefalonia, Greece

latitude: 38-07N, longitude: 020-30E, elevation: 19 m

Current weather observation

The report was made 38 minutes ago, at 09:50 UTC
Wind 16 kt from the North/Northwest
Temperature 27°C
Humidity 74%
Pressure 1010 hPa
Visibility 10 km or more
Scattered clouds at a height of 1400 ft

METAR: LGKF 180950Z 33016KT 9999 SCT014 27/22 Q1010

Time: 13:28 (10:28 UTC)

Forecast

The report was made 2 hours and 28 minutes ago, at 08:00 UTC
Forecast valid from 18 at 09 UTC to 18 at 18 UTC
Wind 15 kt from the North/Northwest
Visibility 10 km or more
Scattered clouds at a height of 1400 ft
Temporary
from 18 at 09 UTC to 18 at 18 UTC
Wind 15 kt from the Northwest with gusts up to 25 kt

TAF: LGKF 180800Z 1809/1818 33015KT 9999 SCT014 TEMPO 1809/1818 32015G25KT

Weather observations and forecasts of more than 4000 airports (METAR and TAF reports).

The available stations are represented by yellow and red dots on the map.

Hover mouse over dot to see the name of the station.

Then click to see weather observations and forecasts.

To change the map : click on the green buttons with a black cross to zoom in, on the green button with a dash to zoom out, or on the green arrows for adjacent maps.


METAR-TAF: